Wrenshall, Minnesota
Current Conditions -  °F | °C
As of 10:16 AM on Thursday 23 Oct 2014 (Local Time) from KCOQ Reporting Station
Haze Haze  
Wind Chill: 45°   Ceiling: 200
Heat Index: 48°   Visibility: 1mi
Dew Point: 46°   Wind: 7mph
Humidity: 93%   Direction: 200°SSW
Pressure: 29.97"   Gusts: NA
Location:  46.62°N, 92.38°W
Report Text: KCOQ 231516Z AUTO 20006KT 1SM BR OVC002 09/08 A2997 RMK AO2
Loading
Personal Weather Stations






























Interactive Weather Map
Tropical Storm Tracking
New forecast layout! Learn more

10-Day Weather Forecast

Advertisements
Track Severe Weather on mobile